createdAt,value
2018-05-08T00:00:52.497Z,3.90
2018-05-08T00:01:52.515Z,4.50
2018-05-08T00:02:52.459Z,4.60
2018-05-08T00:03:52.489Z,4.70
2018-05-08T00:04:52.457Z,4.60
2018-05-08T00:05:52.531Z,4.10
2018-05-08T00:06:52.486Z,4.70
2018-05-08T00:07:52.526Z,4.40
2018-05-08T00:08:52.583Z,4.50
2018-05-08T00:09:52.502Z,4.20
2018-05-08T00:10:52.524Z,4.30
2018-05-08T00:11:52.521Z,4.70
2018-05-08T00:12:52.524Z,4.80
2018-05-08T00:13:52.506Z,4.50
2018-05-08T00:14:52.529Z,4.50
2018-05-08T00:15:52.507Z,4.60
2018-05-08T00:16:52.517Z,4.60
2018-05-08T00:17:52.533Z,4.90
2018-05-08T00:18:52.554Z,4.60
2018-05-08T00:19:52.526Z,4.20
2018-05-08T00:20:52.559Z,4.30
2018-05-08T00:21:52.519Z,4.70
2018-05-08T00:22:52.557Z,4.90
2018-05-08T00:23:52.522Z,5.00
2018-05-08T00:24:52.615Z,4.30
2018-05-08T00:25:52.522Z,4.80
2018-05-08T00:26:52.555Z,4.70
2018-05-08T00:27:52.578Z,4.70
2018-05-08T00:28:52.551Z,4.70
2018-05-08T00:29:53.053Z,4.30
2018-05-08T00:30:52.552Z,4.40
2018-05-08T00:31:52.565Z,4.50
2018-05-08T00:32:52.586Z,4.50
2018-05-08T00:33:52.612Z,4.30
2018-05-08T00:34:52.619Z,4.30
2018-05-08T00:35:52.592Z,4.90
2018-05-08T00:36:52.596Z,4.70
2018-05-08T00:37:52.591Z,4.70
2018-05-08T00:38:52.603Z,5.30
2018-05-08T00:39:52.617Z,4.70
2018-05-08T00:40:52.614Z,4.80
2018-05-08T00:41:52.639Z,4.50
2018-05-08T00:42:52.625Z,5.00
2018-05-08T00:43:52.620Z,4.60
2018-05-08T00:44:52.624Z,4.80
2018-05-08T00:45:52.642Z,4.60
2018-05-08T00:46:52.616Z,5.00
2018-05-08T00:47:53.555Z,4.70
2018-05-08T00:48:52.655Z,4.70
2018-05-08T00:49:52.647Z,4.80
2018-05-08T00:50:52.633Z,5.30
2018-05-08T00:51:52.638Z,4.80
2018-05-08T00:52:52.650Z,4.50
2018-05-08T00:53:52.638Z,4.70
2018-05-08T00:54:52.637Z,5.10
2018-05-08T00:55:52.637Z,4.70
2018-05-08T00:56:52.642Z,4.80
2018-05-08T00:57:52.698Z,5.00
2018-05-08T00:58:52.653Z,4.50
2018-05-08T00:59:52.680Z,4.50
2018-05-08T01:00:52.653Z,4.80
2018-05-08T01:01:53.564Z,5.10
2018-05-08T01:02:52.661Z,5.10
2018-05-08T01:03:52.701Z,4.30
2018-05-08T01:04:52.751Z,4.80
2018-05-08T01:05:52.762Z,4.70
2018-05-08T01:06:52.685Z,4.90
2018-05-08T01:07:52.695Z,4.50
2018-05-08T01:08:52.722Z,4.80
2018-05-08T01:09:52.705Z,5.20
2018-05-08T01:10:53.561Z,4.60
2018-05-08T01:11:52.703Z,5.10
2018-05-08T01:12:52.689Z,4.80
2018-05-08T01:13:53.564Z,5.20
2018-05-08T01:14:52.709Z,4.50
2018-05-08T01:15:52.730Z,5.00
2018-05-08T01:16:52.722Z,4.90
2018-05-08T01:17:52.749Z,4.90
2018-05-08T01:18:52.752Z,4.70
2018-05-08T01:19:52.728Z,5.10
2018-05-08T01:20:52.725Z,4.70
2018-05-08T01:21:52.715Z,5.10
2018-05-08T01:22:52.726Z,5.00
2018-05-08T01:23:52.769Z,4.40
2018-05-08T01:24:52.741Z,4.40
2018-05-08T01:25:53.569Z,4.80
2018-05-08T01:26:52.740Z,4.90
2018-05-08T01:27:52.749Z,5.20
2018-05-08T01:28:52.808Z,5.00
2018-05-08T01:29:52.765Z,4.90
2018-05-08T01:30:52.781Z,4.90
2018-05-08T01:31:52.779Z,5.20
2018-05-08T01:32:52.773Z,4.80
2018-05-08T01:33:52.779Z,4.60
2018-05-08T01:34:52.784Z,5.00
2018-05-08T01:35:52.771Z,4.60
2018-05-08T01:36:52.792Z,4.90
2018-05-08T01:37:52.861Z,4.80
2018-05-08T01:38:52.805Z,4.50
2018-05-08T01:39:52.844Z,5.00
2018-05-08T01:40:52.831Z,5.30
2018-05-08T01:41:52.872Z,5.00
2018-05-08T01:42:52.798Z,5.00
2018-05-08T01:43:52.807Z,4.90
2018-05-08T01:44:52.861Z,5.00
2018-05-08T01:45:52.853Z,5.30
2018-05-08T01:46:52.807Z,4.90
2018-05-08T01:47:53.577Z,5.20
2018-05-08T01:48:52.801Z,4.60
2018-05-08T01:49:52.886Z,4.80
2018-05-08T01:50:52.834Z,5.10
2018-05-08T01:51:52.816Z,4.90
2018-05-08T01:52:52.846Z,5.20
2018-05-08T01:53:52.852Z,4.60
2018-05-08T01:54:52.855Z,4.90
2018-05-08T01:55:52.847Z,4.80
2018-05-08T01:56:52.881Z,4.90
2018-05-08T01:57:52.833Z,4.70
2018-05-08T01:58:52.850Z,5.10
2018-05-08T01:59:52.882Z,4.80
2018-05-08T02:00:52.886Z,5.20
2018-05-08T02:01:52.843Z,5.10
2018-05-08T02:02:52.874Z,4.90
2018-05-08T02:03:52.836Z,4.90
2018-05-08T02:04:52.885Z,5.50
2018-05-08T02:05:52.892Z,4.60
2018-05-08T02:06:52.867Z,5.30
2018-05-08T02:07:52.851Z,5.20
2018-05-08T02:08:53.082Z,4.80
2018-05-08T02:09:52.899Z,5.00
2018-05-08T02:10:52.892Z,4.60
2018-05-08T02:11:52.917Z,5.00
2018-05-08T02:12:52.891Z,5.30
2018-05-08T02:13:52.891Z,4.80
2018-05-08T02:14:52.918Z,5.60
2018-05-08T02:15:52.933Z,4.90
2018-05-08T02:16:52.918Z,5.30
2018-05-08T02:17:53.042Z,5.10
2018-05-08T02:18:52.930Z,4.90
2018-05-08T02:19:52.905Z,5.30
2018-05-08T02:20:52.936Z,5.00
2018-05-08T02:21:52.922Z,4.80
2018-05-08T02:22:52.953Z,5.30
2018-05-08T02:23:52.925Z,5.30
2018-05-08T02:24:52.928Z,5.10
2018-05-08T02:25:52.957Z,5.40
2018-05-08T02:26:52.934Z,5.10
2018-05-08T02:27:52.928Z,4.90
2018-05-08T02:28:52.928Z,5.50
2018-05-08T02:29:52.928Z,5.20
2018-05-08T02:30:53.592Z,5.20
2018-05-08T02:31:53.012Z,5.30
2018-05-08T02:32:52.957Z,5.00
2018-05-08T02:33:52.998Z,5.10
2018-05-08T02:34:52.940Z,5.20
2018-05-08T02:35:52.949Z,5.20
2018-05-08T02:36:52.981Z,5.00
2018-05-08T02:37:52.979Z,5.30
2018-05-08T02:38:52.964Z,4.90
2018-05-08T02:39:52.960Z,5.10
2018-05-08T02:40:53.016Z,5.30
2018-05-08T02:41:53.004Z,5.00
2018-05-08T02:42:52.975Z,5.00
2018-05-08T02:43:53.005Z,5.40
2018-05-08T02:46:58.596Z,5.40
2018-05-08T02:47:53.054Z,5.70
2018-05-08T02:48:53.043Z,5.50
2018-05-08T02:49:53.025Z,5.50
2018-05-08T02:50:53.052Z,5.60
2018-05-08T02:51:52.988Z,5.70
2018-05-08T02:52:53.039Z,5.20
2018-05-08T02:53:52.998Z,5.60
2018-05-08T02:54:53.013Z,5.30
2018-05-08T02:55:53.006Z,5.70
2018-05-08T02:56:53.028Z,4.90
2018-05-08T02:57:53.016Z,5.50
2018-05-08T02:58:53.023Z,5.30
2018-05-08T02:59:53.022Z,5.40
2018-05-08T03:00:53.024Z,5.30
2018-05-08T03:01:53.042Z,5.30
2018-05-08T03:02:53.051Z,5.20
2018-05-08T03:03:53.051Z,5.90
2018-05-08T03:04:53.028Z,5.60
2018-05-08T03:05:53.049Z,5.80
2018-05-08T03:06:53.087Z,5.50
2018-05-08T03:07:53.055Z,5.70
2018-05-08T03:08:53.097Z,5.80
2018-05-08T03:09:53.052Z,5.60
2018-05-08T03:10:53.114Z,5.60
2018-05-08T03:11:53.061Z,5.30
2018-05-08T03:12:53.106Z,5.60
2018-05-08T03:13:53.097Z,6.00
2018-05-08T03:14:53.110Z,5.80
2018-05-08T03:15:53.065Z,6.00
2018-05-08T03:16:53.161Z,6.00
2018-05-08T03:17:53.227Z,5.70
2018-05-08T03:18:53.141Z,5.50
2018-05-08T03:19:53.078Z,5.40
2018-05-08T03:20:53.074Z,5.60
2018-05-08T03:21:53.100Z,5.30
2018-05-08T03:22:53.096Z,5.90
2018-05-08T03:23:53.143Z,5.70
2018-05-08T03:24:54.945Z,6.10
2018-05-08T03:25:53.100Z,5.40
2018-05-08T03:26:53.149Z,5.60
2018-05-08T03:27:53.109Z,5.70
2018-05-08T03:28:53.136Z,5.40
2018-05-08T03:29:54.112Z,5.70
2018-05-08T03:30:53.146Z,5.50
2018-05-08T03:31:53.125Z,6.00
2018-05-08T03:32:53.152Z,5.80
2018-05-08T03:33:53.153Z,6.90
2018-05-08T03:34:53.174Z,5.90
2018-05-08T03:35:53.120Z,5.90
2018-05-08T03:36:53.167Z,6.50
2018-05-08T03:37:53.210Z,5.90
2018-05-08T03:38:53.160Z,6.00
2018-05-08T03:39:53.612Z,5.90
2018-05-08T03:40:53.192Z,5.50
2018-05-08T03:41:53.129Z,5.90
2018-05-08T03:42:53.174Z,5.80
2018-05-08T03:43:53.166Z,6.00
2018-05-08T03:44:53.151Z,5.70
2018-05-08T03:45:53.146Z,6.50
2018-05-08T03:46:53.207Z,5.70
2018-05-08T03:47:53.178Z,6.20
2018-05-08T03:48:53.182Z,6.00
2018-05-08T03:49:53.236Z,6.20
2018-05-08T03:50:53.218Z,5.90
2018-05-08T03:51:53.191Z,6.60
2018-05-08T03:52:54.121Z,6.30
2018-05-08T03:53:53.236Z,6.00
2018-05-08T03:54:53.219Z,6.00
2018-05-08T03:55:53.197Z,6.50
2018-05-08T03:56:53.226Z,6.50
2018-05-08T03:57:53.179Z,6.50
2018-05-08T03:58:53.190Z,5.80
2018-05-08T03:59:53.209Z,6.40
2018-05-08T04:00:53.195Z,6.50
2018-05-08T04:01:53.196Z,6.20
2018-05-08T04:02:53.201Z,6.40
2018-05-08T04:03:53.224Z,6.20
2018-05-08T04:04:53.203Z,5.90
2018-05-08T04:05:53.263Z,6.70
2018-05-08T04:06:53.220Z,6.40
2018-05-08T04:07:53.232Z,6.50
2018-05-08T04:08:53.244Z,6.20
2018-05-08T04:09:53.218Z,6.30
2018-05-08T04:10:53.247Z,6.50
2018-05-08T04:11:53.264Z,7.00
2018-05-08T04:12:53.287Z,6.80
2018-05-08T04:13:53.239Z,6.90
2018-05-08T04:14:53.255Z,6.80
2018-05-08T04:15:53.267Z,6.80
2018-05-08T04:16:53.263Z,6.90
2018-05-08T04:17:53.248Z,7.20
2018-05-08T04:18:53.256Z,6.50
2018-05-08T04:19:53.264Z,6.50
2018-05-08T04:20:54.124Z,6.60
2018-05-08T04:21:53.277Z,6.70
2018-05-08T04:22:53.246Z,6.50
2018-05-08T04:23:53.246Z,7.00
2018-05-08T04:24:53.243Z,6.60
2018-05-08T04:25:53.277Z,6.50
2018-05-08T04:26:53.334Z,6.30
2018-05-08T04:27:53.369Z,6.90
2018-05-08T04:28:53.260Z,6.70
2018-05-08T04:29:53.267Z,6.70
2018-05-08T04:30:53.292Z,6.40
2018-05-08T04:31:53.299Z,6.50
2018-05-08T04:32:53.281Z,6.20
2018-05-08T04:33:53.329Z,6.50
2018-05-08T04:34:53.311Z,5.80
2018-05-08T04:35:53.307Z,6.00
2018-05-08T04:36:53.303Z,6.50
2018-05-08T04:37:53.323Z,6.50
2018-05-08T04:38:53.318Z,6.20
2018-05-08T04:39:53.342Z,6.40
2018-05-08T04:40:53.331Z,6.20
2018-05-08T04:41:53.363Z,6.10
2018-05-08T04:42:53.338Z,6.50
2018-05-08T04:43:53.338Z,6.20
2018-05-08T04:44:53.353Z,6.30
2018-05-08T04:45:53.365Z,6.70
2018-05-08T04:46:53.373Z,6.00
2018-05-08T04:47:53.321Z,6.00
2018-05-08T04:48:53.323Z,6.20
2018-05-08T04:49:53.400Z,6.40
2018-05-08T04:50:53.448Z,6.60
2018-05-08T04:51:53.366Z,6.40
2018-05-08T04:52:53.347Z,6.10
2018-05-08T04:53:53.386Z,6.50
2018-05-08T04:54:53.406Z,6.30
2018-05-08T04:55:53.462Z,6.10
2018-05-08T04:56:53.355Z,6.30
2018-05-08T04:57:53.398Z,6.20
2018-05-08T04:58:54.140Z,6.80
2018-05-08T04:59:53.375Z,6.50
2018-05-08T05:00:53.383Z,6.50
2018-05-08T05:01:53.459Z,6.70
2018-05-08T05:02:54.144Z,6.50
2018-05-08T05:03:53.401Z,6.30
2018-05-08T05:04:53.402Z,6.40
2018-05-08T05:05:53.373Z,6.00
2018-05-08T05:06:53.505Z,6.30
2018-05-08T05:07:53.423Z,6.20
2018-05-08T05:08:53.451Z,6.70
2018-05-08T05:09:53.378Z,6.60
2018-05-08T05:10:53.403Z,6.30
2018-05-08T05:11:53.389Z,6.60
2018-05-08T05:12:53.429Z,6.40
2018-05-08T05:13:53.474Z,6.00
2018-05-08T05:14:56.690Z,6.60
2018-05-08T05:16:54.010Z,6.50
2018-05-08T05:17:56.980Z,5.90
2018-05-08T05:19:22.337Z,5.90
2018-05-08T05:19:55.409Z,5.80
2018-05-08T05:20:55.298Z,6.00
2018-05-08T05:21:56.601Z,6.10
2018-05-08T05:23:09.422Z,6.80
2018-05-08T05:23:58.133Z,6.60
2018-05-08T05:24:53.444Z,6.30
2018-05-08T05:25:53.423Z,6.40
2018-05-08T05:26:53.473Z,6.30
2018-05-08T05:27:54.264Z,6.10
2018-05-08T05:28:54.397Z,6.00
2018-05-08T05:29:54.364Z,6.20
2018-05-08T05:30:53.550Z,6.00
2018-05-08T05:31:53.479Z,6.20
2018-05-08T05:32:56.875Z,6.20
2018-05-08T05:33:53.727Z,5.90
2018-05-08T05:34:54.258Z,5.90
2018-05-08T05:35:53.502Z,5.80
2018-05-08T05:36:53.542Z,5.90
2018-05-08T05:37:53.514Z,5.80
2018-05-08T05:39:05.625Z,5.90
2018-05-08T05:39:55.655Z,5.40
2018-05-08T05:41:53.620Z,6.10
2018-05-08T05:42:59.120Z,6.10
2018-05-08T05:43:56.090Z,5.90
2018-05-08T05:45:53.508Z,5.50
2018-05-08T05:46:54.951Z,5.60
2018-05-08T05:47:53.645Z,5.60
2018-05-08T05:48:55.138Z,5.60
2018-05-08T05:49:55.223Z,5.30
2018-05-08T05:50:55.470Z,6.30
2018-05-08T05:51:58.343Z,5.40
2018-05-08T05:52:54.705Z,5.00
2018-05-08T05:53:56.092Z,5.30
2018-05-08T05:54:55.320Z,5.30
2018-05-08T05:57:21.461Z,6.00
2018-05-08T05:57:53.601Z,5.60
2018-05-08T05:58:53.605Z,5.50
2018-05-08T05:59:53.851Z,5.50
2018-05-08T06:00:53.575Z,5.30
2018-05-08T06:01:53.699Z,5.30
2018-05-08T06:02:53.546Z,5.60
2018-05-08T06:03:53.691Z,5.30
2018-05-08T06:04:53.640Z,5.60
2018-05-08T06:05:53.711Z,5.30
2018-05-08T06:06:54.036Z,4.90
2018-05-08T06:07:53.668Z,5.40
2018-05-08T06:08:53.733Z,5.90
2018-05-08T06:09:53.676Z,5.80
2018-05-08T06:10:53.678Z,5.40
2018-05-08T06:11:53.803Z,5.20
2018-05-08T06:12:53.609Z,5.50
2018-05-08T06:13:53.620Z,5.80
2018-05-08T06:14:53.703Z,5.30
2018-05-08T06:15:53.637Z,5.60
2018-05-08T06:16:53.695Z,5.30
2018-05-08T06:17:53.732Z,5.60
2018-05-08T06:18:53.703Z,5.10
2018-05-08T06:19:54.071Z,5.80
2018-05-08T06:20:53.755Z,5.60
2018-05-08T06:21:53.674Z,5.20
2018-05-08T06:22:53.733Z,5.50
2018-05-08T06:23:53.778Z,5.80
2018-05-08T06:24:57.155Z,6.40
2018-05-08T06:25:53.793Z,5.20
2018-05-08T06:26:53.956Z,5.50
2018-05-08T06:27:53.946Z,5.60
2018-05-08T06:28:53.813Z,5.50
2018-05-08T06:29:53.847Z,5.80
2018-05-08T06:30:54.461Z,5.10
2018-05-08T06:31:54.238Z,5.20
2018-05-08T06:32:53.812Z,5.10
2018-05-08T06:33:53.831Z,5.40
2018-05-08T06:34:53.863Z,5.30
2018-05-08T06:35:53.949Z,5.00
2018-05-08T06:36:53.928Z,6.40
2018-05-08T06:37:53.876Z,5.30
2018-05-08T06:38:58.103Z,5.30
2018-05-08T06:39:53.939Z,5.20
2018-05-08T06:40:53.873Z,5.30
2018-05-08T06:41:53.941Z,5.80
2018-05-08T06:42:53.911Z,5.60
2018-05-08T06:43:53.915Z,5.20
2018-05-08T06:44:53.919Z,5.10
2018-05-08T06:45:54.285Z,5.50
2018-05-08T06:46:54.718Z,5.40
2018-05-08T06:47:53.942Z,5.50
2018-05-08T06:48:54.105Z,5.00
2018-05-08T06:49:54.047Z,4.90
2018-05-08T06:50:53.995Z,4.90
2018-05-08T06:51:54.201Z,5.00
2018-05-08T06:53:56.071Z,4.80
2018-05-08T06:54:54.404Z,4.80
2018-05-08T06:55:54.304Z,4.90
2018-05-08T06:56:54.345Z,4.70
2018-05-08T06:57:54.375Z,5.30
2018-05-08T06:58:56.545Z,5.20
2018-05-08T07:00:15.357Z,4.90
2018-05-08T07:00:54.418Z,5.40
2018-05-08T07:01:54.372Z,5.80
2018-05-08T07:02:54.369Z,4.60
2018-05-08T07:03:54.422Z,4.90
2018-05-08T07:04:55.646Z,5.10
2018-05-08T07:06:20.202Z,5.20
2018-05-08T07:06:54.474Z,4.70
2018-05-08T07:08:09.094Z,4.90
2018-05-08T07:08:55.177Z,4.90
2018-05-08T07:09:55.445Z,5.00
2018-05-08T07:10:54.673Z,5.40
2018-05-08T07:12:16.142Z,5.10
2018-05-08T07:12:54.583Z,4.70
2018-05-08T07:13:54.615Z,4.80
2018-05-08T07:14:55.395Z,4.70
2018-05-08T07:15:54.728Z,4.50
2018-05-08T07:16:55.315Z,4.90
2018-05-08T07:18:15.769Z,5.40
2018-05-08T07:18:55.281Z,5.00
2018-05-08T07:19:55.806Z,5.20
2018-05-08T07:20:54.704Z,4.80
2018-05-08T07:21:56.251Z,4.90
2018-05-08T07:22:55.707Z,4.90
2018-05-08T07:24:17.766Z,4.70
2018-05-08T07:24:55.901Z,4.90
2018-05-08T07:25:54.995Z,4.70
2018-05-08T07:26:55.809Z,4.60
2018-05-08T07:27:55.824Z,5.20
2018-05-08T07:28:56.394Z,4.50
2018-05-08T07:30:15.958Z,4.60
2018-05-08T07:30:56.231Z,4.60
2018-05-08T07:31:55.601Z,4.50
2018-05-08T07:32:55.044Z,4.80
2018-05-08T07:33:55.073Z,4.60
2018-05-08T07:34:54.951Z,5.30
2018-05-08T07:36:21.967Z,4.60
2018-05-08T07:36:56.884Z,5.00
2018-05-08T07:37:57.817Z,4.70
2018-05-08T07:39:15.167Z,4.80
2018-05-08T07:39:59.296Z,5.10
2018-05-08T07:40:55.021Z,4.60
2018-05-08T07:42:16.063Z,4.70
2018-05-08T07:42:55.739Z,4.90
2018-05-08T07:44:00.766Z,4.70
2018-05-08T07:44:55.193Z,4.40
2018-05-08T07:45:57.258Z,4.60
2018-05-08T07:46:55.526Z,4.50
2018-05-08T07:48:16.475Z,5.10
2018-05-08T07:49:03.972Z,5.00
2018-05-08T07:50:00.569Z,4.70
2018-05-08T07:50:55.527Z,5.00
2018-05-08T07:51:56.360Z,4.80
2018-05-08T07:52:59.294Z,4.50
2018-05-08T07:54:18.238Z,4.80
2018-05-08T07:55:01.201Z,4.50
2018-05-08T07:55:58.617Z,4.70
2018-05-08T07:56:57.190Z,4.70
2018-05-08T07:57:58.183Z,4.50
2018-05-08T07:59:09.810Z,5.30
2018-05-08T08:01:27.314Z,4.70
2018-05-08T08:02:27.160Z,5.00
2018-05-08T08:03:27.227Z,5.70
2018-05-08T08:04:27.196Z,5.20
2018-05-08T08:05:27.209Z,5.10
2018-05-08T08:06:27.227Z,4.90
2018-05-08T08:07:27.314Z,4.90
2018-05-08T08:08:27.287Z,5.00
2018-05-08T08:09:27.290Z,4.80
2018-05-08T08:10:27.315Z,5.00
2018-05-08T08:11:27.319Z,5.00
2018-05-08T08:12:27.442Z,5.20
2018-05-08T08:13:27.960Z,4.90
2018-05-08T08:14:27.527Z,4.80
2018-05-08T08:15:27.370Z,4.80
2018-05-08T08:16:27.411Z,4.90
2018-05-08T08:17:27.409Z,5.00
2018-05-08T08:18:27.459Z,4.70
2018-05-08T08:19:27.448Z,5.10
2018-05-08T08:20:27.469Z,4.80
2018-05-08T08:21:27.501Z,5.00
2018-05-08T08:22:27.521Z,5.10
2018-05-08T08:23:27.515Z,4.20
2018-05-08T08:24:27.534Z,4.70
2018-05-08T08:25:27.634Z,4.90
2018-05-08T08:26:28.469Z,4.60
2018-05-08T08:27:27.582Z,5.30
2018-05-08T08:28:27.595Z,4.70
2018-05-08T08:29:28.473Z,4.50
2018-05-08T08:30:27.660Z,4.60
2018-05-08T08:31:27.657Z,4.40
2018-05-08T08:32:27.676Z,4.60
2018-05-08T08:33:27.696Z,4.30
2018-05-08T08:34:27.798Z,5.00
2018-05-08T08:35:27.725Z,5.00
2018-05-08T08:36:27.750Z,4.70
2018-05-08T08:37:27.787Z,4.80
2018-05-08T08:38:27.781Z,4.00
2018-05-08T08:39:27.807Z,4.80
2018-05-08T08:40:27.892Z,4.20
2018-05-08T08:41:27.841Z,4.20
2018-05-08T08:42:27.852Z,4.40
2018-05-08T08:43:27.866Z,4.00
2018-05-08T08:44:28.007Z,4.10
2018-05-08T08:45:27.920Z,4.20
2018-05-08T08:46:27.945Z,4.20
2018-05-08T08:47:28.015Z,4.20
2018-05-08T08:48:27.976Z,4.30
2018-05-08T08:49:28.018Z,3.90
2018-05-08T08:50:27.999Z,4.10
2018-05-08T08:51:28.015Z,3.80
2018-05-08T08:52:28.131Z,4.00
2018-05-08T08:53:28.048Z,4.00
2018-05-08T08:54:28.140Z,4.40
2018-05-08T08:55:28.100Z,4.10
2018-05-08T08:56:28.130Z,4.10
2018-05-08T08:57:28.129Z,4.20
2018-05-08T08:58:28.176Z,3.80
2018-05-08T08:59:28.172Z,3.80
2018-05-08T09:00:28.187Z,3.80
2018-05-08T09:01:28.218Z,5.10
2018-05-08T09:02:28.244Z,4.20
2018-05-08T09:03:28.258Z,4.10
2018-05-08T09:04:28.987Z,3.80
2018-05-08T09:05:28.292Z,3.60
2018-05-08T09:06:28.333Z,4.00
2018-05-08T09:07:28.343Z,3.60
2018-05-08T09:08:28.364Z,3.90
2018-05-08T09:09:28.374Z,3.60
2018-05-08T09:10:28.402Z,3.90
2018-05-08T09:11:28.484Z,4.00
2018-05-08T09:12:28.468Z,3.80
2018-05-08T09:13:28.470Z,4.00
2018-05-08T09:14:28.470Z,4.20
2018-05-08T09:15:28.546Z,4.20
2018-05-08T09:16:28.527Z,3.70
2018-05-08T09:17:28.562Z,3.50
2018-05-08T09:18:28.567Z,3.80
2018-05-08T09:19:29.505Z,3.60
2018-05-08T09:20:28.637Z,3.60
2018-05-08T09:21:28.684Z,3.90
2018-05-08T09:22:28.660Z,3.30
2018-05-08T09:23:28.717Z,3.50
2018-05-08T09:24:28.708Z,3.30
2018-05-08T09:25:28.732Z,3.30
2018-05-08T09:26:28.736Z,3.40
2018-05-08T09:27:28.769Z,3.50
2018-05-08T09:28:28.778Z,3.70
2018-05-08T09:29:28.848Z,3.50
2018-05-08T09:30:28.823Z,3.70
2018-05-08T09:31:28.852Z,3.20
2018-05-08T09:32:28.877Z,3.30
2018-05-08T09:33:28.888Z,2.60
2018-05-08T09:34:28.929Z,3.10
2018-05-08T09:35:28.941Z,3.20
2018-05-08T09:36:30.023Z,3.00
2018-05-08T09:37:28.992Z,2.90
2018-05-08T09:38:29.003Z,3.10
2018-05-08T09:39:29.021Z,3.00
2018-05-08T09:40:29.058Z,2.90
2018-05-08T09:41:29.065Z,3.20
2018-05-08T09:42:29.129Z,2.80
2018-05-08T09:43:29.113Z,2.50
2018-05-08T09:44:29.153Z,2.90
2018-05-08T09:45:29.190Z,2.70
2018-05-08T09:46:30.011Z,2.90
2018-05-08T09:47:29.216Z,3.20
2018-05-08T09:48:29.235Z,2.70
2018-05-08T09:49:29.317Z,3.20
2018-05-08T09:50:29.308Z,2.40
2018-05-08T09:51:29.300Z,2.80
2018-05-08T09:52:29.343Z,2.90
2018-05-08T09:53:29.351Z,2.80
2018-05-08T09:54:29.371Z,3.20
2018-05-08T09:55:29.387Z,2.40
2018-05-08T09:56:29.470Z,2.40
2018-05-08T09:57:29.426Z,2.60
2018-05-08T09:58:29.465Z,2.40
2018-05-08T09:59:29.486Z,3.10
2018-05-08T10:00:29.504Z,2.90
2018-05-08T10:01:29.532Z,2.80
2018-05-08T10:02:29.561Z,2.70
2018-05-08T10:03:29.570Z,2.80
2018-05-08T10:04:29.599Z,2.50
2018-05-08T10:05:29.642Z,2.30
2018-05-08T10:06:29.647Z,2.50
2018-05-08T10:07:30.538Z,2.50
2018-05-08T10:08:30.532Z,2.70
2018-05-08T10:09:29.741Z,3.30
2018-05-08T10:10:29.739Z,2.60
2018-05-08T10:11:29.758Z,2.60
2018-05-08T10:12:29.785Z,2.40
2018-05-08T10:13:29.807Z,2.80
2018-05-08T10:14:29.820Z,2.70
2018-05-08T10:15:29.852Z,2.40
2018-05-08T10:16:29.893Z,2.60
2018-05-08T10:17:29.896Z,2.60
2018-05-08T10:18:30.537Z,2.30
2018-05-08T10:19:29.943Z,2.70
2018-05-08T10:20:30.565Z,2.60
2018-05-08T10:21:30.006Z,2.70
2018-05-08T10:22:30.013Z,2.50
2018-05-08T10:23:30.037Z,2.80
2018-05-08T10:24:30.068Z,2.40
2018-05-08T10:25:30.091Z,2.30
2018-05-08T10:26:30.141Z,2.30
2018-05-08T10:27:30.127Z,2.10
2018-05-08T10:28:30.178Z,2.40
2018-05-08T10:29:30.193Z,2.40
2018-05-08T10:30:30.198Z,2.50
2018-05-08T10:31:30.237Z,2.50
2018-05-08T10:32:30.274Z,2.80
2018-05-08T10:33:30.288Z,2.50
2018-05-08T10:34:30.294Z,2.50
2018-05-08T10:35:31.052Z,2.10
2018-05-08T10:36:30.347Z,2.40
2018-05-08T10:37:30.374Z,2.30
2018-05-08T10:38:30.421Z,2.40
2018-05-08T10:39:30.403Z,2.10
2018-05-08T10:40:30.431Z,2.50
2018-05-08T10:41:30.470Z,2.30
2018-05-08T10:42:30.470Z,2.50
2018-05-08T10:43:30.491Z,3.60
2018-05-08T10:44:30.508Z,2.80
2018-05-08T10:45:30.585Z,2.70
2018-05-08T10:46:30.557Z,2.40
2018-05-08T10:47:30.584Z,2.30
2018-05-08T10:48:30.635Z,2.80
2018-05-08T10:49:30.619Z,2.70
2018-05-08T10:50:30.688Z,2.50
2018-05-08T10:51:30.685Z,2.40
2018-05-08T10:52:30.674Z,2.50
2018-05-08T10:53:30.703Z,2.60
2018-05-08T10:54:30.748Z,3.00
2018-05-08T10:55:30.744Z,2.70
2018-05-08T10:56:31.093Z,3.00
2018-05-08T10:57:31.559Z,2.70
2018-05-08T10:58:30.784Z,3.00
2018-05-08T10:59:30.838Z,2.90
2018-05-08T11:00:30.838Z,2.60
2018-05-08T11:01:30.870Z,2.70
2018-05-08T11:02:30.892Z,2.60
2018-05-08T11:03:30.883Z,2.40
2018-05-08T11:04:30.972Z,2.90
2018-05-08T11:05:30.914Z,2.60
2018-05-08T11:06:30.923Z,3.00
2018-05-08T11:07:31.023Z,2.70
2018-05-08T11:08:30.953Z,2.70
2018-05-08T11:09:30.979Z,2.90
2018-05-08T11:10:30.996Z,2.50
2018-05-08T11:11:30.983Z,2.70
2018-05-08T11:12:31.100Z,3.10
2018-05-08T11:13:31.020Z,2.90
2018-05-08T11:14:31.026Z,3.20
2018-05-08T11:15:31.043Z,2.90
2018-05-08T11:16:31.064Z,2.50
2018-05-08T11:17:31.067Z,3.00
2018-05-08T11:18:31.100Z,9.90
2018-05-08T11:19:31.096Z,2.70
2018-05-08T11:20:31.124Z,2.40
2018-05-08T11:21:31.119Z,2.90
2018-05-08T11:22:31.199Z,2.70
2018-05-08T11:23:31.193Z,2.70
2018-05-08T11:24:31.247Z,2.90
2018-05-08T11:25:31.173Z,2.40
2018-05-08T11:26:32.172Z,2.80
2018-05-08T11:27:32.077Z,2.60
2018-05-08T11:28:31.198Z,2.70
2018-05-08T11:29:31.441Z,2.70
2018-05-08T11:30:31.251Z,3.00
2018-05-08T11:31:31.249Z,2.60
2018-05-08T11:32:31.240Z,2.60
2018-05-08T11:33:31.240Z,2.70
2018-05-08T11:34:31.273Z,2.80
2018-05-08T11:35:31.284Z,3.40
2018-05-08T11:36:31.283Z,2.50
2018-05-08T11:37:31.288Z,2.70
2018-05-08T11:38:31.300Z,3.00
2018-05-08T11:39:31.299Z,2.70
2018-05-08T11:40:31.323Z,2.60
2018-05-08T11:41:31.348Z,2.40
2018-05-08T11:42:31.558Z,2.30
2018-05-08T11:43:31.364Z,2.30
2018-05-08T11:44:31.407Z,2.60
2018-05-08T11:45:31.424Z,2.50
2018-05-08T11:46:31.411Z,2.60
2018-05-08T11:47:31.437Z,2.60
2018-05-08T11:48:31.409Z,2.60
2018-05-08T11:49:31.426Z,2.80
2018-05-08T11:50:31.420Z,2.50
2018-05-08T11:51:31.429Z,2.70
2018-05-08T11:52:31.441Z,2.70
2018-05-08T11:53:31.571Z,2.80
2018-05-08T11:54:31.454Z,2.60
2018-05-08T11:55:31.573Z,2.50
2018-05-08T11:56:32.107Z,2.50
2018-05-08T11:57:31.515Z,2.20
2018-05-08T11:58:31.494Z,2.80
2018-05-08T11:59:31.565Z,2.70
2018-05-08T12:00:31.543Z,2.20
2018-05-08T12:01:31.525Z,2.20
2018-05-08T12:02:32.196Z,3.00
2018-05-08T12:03:31.555Z,2.70
2018-05-08T12:04:31.647Z,2.70
2018-05-08T12:05:31.659Z,2.90
2018-05-08T12:06:31.571Z,2.50
2018-05-08T12:07:31.570Z,3.20
2018-05-08T12:08:31.582Z,3.60
2018-05-08T12:09:31.595Z,2.90
2018-05-08T12:10:31.601Z,2.40
2018-05-08T12:11:31.656Z,3.00
2018-05-08T12:12:31.629Z,2.80
2018-05-08T12:13:32.609Z,2.60
2018-05-08T12:14:31.717Z,2.40
2018-05-08T12:15:31.759Z,2.80
2018-05-08T12:16:31.675Z,2.90
2018-05-08T12:17:31.688Z,2.80
2018-05-08T12:18:31.687Z,2.80
2018-05-08T12:19:31.724Z,2.70
2018-05-08T12:20:31.720Z,2.40
2018-05-08T12:21:31.722Z,2.40
2018-05-08T12:22:31.728Z,3.50
2018-05-08T12:23:31.737Z,3.00
2018-05-08T12:24:31.746Z,2.70
2018-05-08T12:25:31.758Z,2.20
2018-05-08T12:26:31.756Z,2.50
2018-05-08T12:27:31.782Z,2.70
2018-05-08T12:28:31.780Z,2.60
2018-05-08T12:29:32.612Z,2.20
2018-05-08T12:30:31.867Z,2.50
2018-05-08T12:31:31.806Z,2.60
2018-05-08T12:32:31.830Z,2.40
2018-05-08T12:33:31.811Z,2.30
2018-05-08T12:34:31.827Z,2.30
2018-05-08T12:35:31.821Z,2.50
2018-05-08T12:36:31.883Z,2.60
2018-05-08T12:37:31.862Z,2.70
2018-05-08T12:38:31.853Z,2.20
2018-05-08T12:39:31.855Z,2.20
2018-05-08T12:40:31.885Z,2.50
2018-05-08T12:41:31.885Z,2.50
2018-05-08T12:42:31.872Z,3.00
2018-05-08T12:43:31.900Z,2.20
2018-05-08T12:44:31.898Z,2.60
2018-05-08T12:45:31.916Z,2.70
2018-05-08T12:46:32.067Z,2.60
2018-05-08T12:47:31.941Z,3.10
2018-05-08T12:48:32.630Z,2.40
2018-05-08T12:49:31.942Z,2.40
2018-05-08T12:50:32.031Z,2.70
2018-05-08T12:51:31.969Z,2.50
2018-05-08T12:52:31.961Z,2.50
2018-05-08T12:53:31.980Z,2.40
2018-05-08T12:54:31.981Z,2.20
2018-05-08T12:55:31.991Z,2.30
2018-05-08T12:56:32.012Z,2.50
2018-05-08T12:57:32.052Z,2.60
2018-05-08T12:58:32.029Z,2.20
2018-05-08T12:59:32.091Z,2.10
2018-05-08T13:00:32.092Z,2.20
2018-05-08T13:01:32.054Z,2.30
2018-05-08T13:02:32.095Z,2.10
2018-05-08T13:03:32.074Z,2.10
2018-05-08T13:04:32.059Z,2.30
2018-05-08T13:05:32.141Z,2.30
2018-05-08T13:06:32.076Z,2.40
2018-05-08T13:07:32.115Z,2.20
2018-05-08T13:08:32.115Z,2.30
2018-05-08T13:09:32.183Z,2.20
2018-05-08T13:10:32.640Z,2.00
2018-05-08T13:11:32.628Z,2.10
2018-05-08T13:12:32.156Z,2.50
2018-05-08T13:13:32.178Z,2.10
2018-05-08T13:14:32.284Z,2.50
2018-05-08T13:15:32.195Z,2.60
2018-05-08T13:16:32.184Z,2.30
2018-05-08T13:17:32.196Z,2.50
2018-05-08T13:18:32.223Z,2.50
2018-05-08T13:19:32.228Z,2.60
2018-05-08T13:20:32.461Z,2.30
2018-05-08T13:21:32.239Z,2.50
2018-05-08T13:22:32.387Z,2.70
2018-05-08T13:23:32.253Z,2.40
2018-05-08T13:24:32.354Z,2.50
2018-05-08T13:25:32.314Z,2.40
2018-05-08T13:26:32.276Z,2.50
2018-05-08T13:27:32.267Z,2.40